Terminal Aerodrome Forecast
Issued by NWS Wilmington, NC

Home | Current Version | Previous Version | Text Only | Print | Product List | Glossary On
Versions: 1 2 3 4 5 6 7 8 9 10 11 12 13 14 15 16 17 18 19 20 21 22
000
FTUS42 KILM 261243 AAA
TAFMYR
TAF AMD
KMYR 261243Z 2613/2712 29004KT 6SM BR SCT003 BKN020
     FM261600 34007KT 4SM BR BKN006
     FM261800 35010KT P6SM VCSH BKN012
      TEMPO 2620/2622 5SM -SHRA
     FM270000 01009KT P6SM OVC014=

USA.gov is the U.S. government's official web portal to all federal, state and local government web resources and services.